sensor_id;sensor_type;location;lat;lon;timestamp;pressure;altitude;pressure_sealevel;temperature;humidity
6851;BME280;3464;42.728;23.296;2023-04-29T00:01:30;95324.25;;;10.77;53.83
6851;BME280;3464;42.728;23.296;2023-04-29T00:03:57;95320.80;;;10.64;54.37
6851;BME280;3464;42.728;23.296;2023-04-29T00:06:24;95324.95;;;10.63;54.05
6851;BME280;3464;42.728;23.296;2023-04-29T00:08:51;95325.88;;;10.71;53.50
6851;BME280;3464;42.728;23.296;2023-04-29T00:11:17;95334.37;;;10.40;54.30
6851;BME280;3464;42.728;23.296;2023-04-29T00:13:44;95330.49;;;10.28;54.42
6851;BME280;3464;42.728;23.296;2023-04-29T00:16:11;95336.53;;;10.47;54.05
6851;BME280;3464;42.728;23.296;2023-04-29T00:18:37;95339.88;;;10.44;53.76
6851;BME280;3464;42.728;23.296;2023-04-29T00:21:05;95341.55;;;10.43;53.83
6851;BME280;3464;42.728;23.296;2023-04-29T00:23:32;95339.05;;;10.45;53.73
6851;BME280;3464;42.728;23.296;2023-04-29T00:25:59;95341.52;;;10.39;53.91
6851;BME280;3464;42.728;23.296;2023-04-29T00:28:26;95339.78;;;10.35;54.00
6851;BME280;3464;42.728;23.296;2023-04-29T00:30:53;95343.95;;;10.33;53.82
6851;BME280;3464;42.728;23.296;2023-04-29T00:33:20;95342.22;;;10.26;53.97
6851;BME280;3464;42.728;23.296;2023-04-29T00:35:47;95337.56;;;10.23;53.86
6851;BME280;3464;42.728;23.296;2023-04-29T00:38:14;95335.88;;;10.22;54.06
6851;BME280;3464;42.728;23.296;2023-04-29T00:40:40;95340.47;;;10.20;54.12
6851;BME280;3464;42.728;23.296;2023-04-29T00:43:07;95336.66;;;10.17;54.30
6851;BME280;3464;42.728;23.296;2023-04-29T00:45:34;95332.09;;;10.20;54.39
6851;BME280;3464;42.728;23.296;2023-04-29T00:48:01;95325.33;;;10.16;54.37
6851;BME280;3464;42.728;23.296;2023-04-29T00:50:27;95322.39;;;10.17;54.30
6851;BME280;3464;42.728;23.296;2023-04-29T00:52:55;95322.75;;;10.11;54.32
6851;BME280;3464;42.728;23.296;2023-04-29T00:55:21;95325.19;;;10.06;54.63
6851;BME280;3464;42.728;23.296;2023-04-29T00:57:49;95320.09;;;10.02;54.81
6851;BME280;3464;42.728;23.296;2023-04-29T01:00:16;95317.15;;;10.00;55.36
6851;BME280;3464;42.728;23.296;2023-04-29T01:02:43;95308.70;;;9.94;55.78
6851;BME280;3464;42.728;23.296;2023-04-29T01:05:10;95306.80;;;10.50;54.98
6851;BME280;3464;42.728;23.296;2023-04-29T01:07:40;95306.13;;;10.24;55.21
6851;BME280;3464;42.728;23.296;2023-04-29T01:10:08;95308.47;;;10.07;55.68
6851;BME280;3464;42.728;23.296;2023-04-29T01:12:37;95305.00;;;10.00;56.01
6851;BME280;3464;42.728;23.296;2023-04-29T01:15:04;95304.08;;;9.93;56.40
6851;BME280;3464;42.728;23.296;2023-04-29T01:17:35;95304.48;;;9.92;56.62
6851;BME280;3464;42.728;23.296;2023-04-29T01:19:58;95304.91;;;9.93;56.67
6851;BME280;3464;42.728;23.296;2023-04-29T01:22:25;95302.38;;;9.89;56.51
6851;BME280;3464;42.728;23.296;2023-04-29T01:24:51;95298.50;;;9.84;57.21
6851;BME280;3464;42.728;23.296;2023-04-29T01:29:58;95302.38;;;9.91;57.03
6851;BME280;3464;42.728;23.296;2023-04-29T01:32:31;95306.08;;;9.87;57.10
6851;BME280;3464;42.728;23.296;2023-04-29T01:34:59;95303.70;;;9.97;56.93
6851;BME280;3464;42.728;23.296;2023-04-29T01:37:32;95301.66;;;10.02;56.41
6851;BME280;3464;42.728;23.296;2023-04-29T01:40:31;95299.95;;;9.98;56.25
6851;BME280;3464;42.728;23.296;2023-04-29T01:42:43;95302.84;;;9.95;56.51
6851;BME280;3464;42.728;23.296;2023-04-29T01:45:06;95298.63;;;9.92;56.46
6851;BME280;3464;42.728;23.296;2023-04-29T01:47:32;95299.78;;;9.85;56.50
6851;BME280;3464;42.728;23.296;2023-04-29T01:49:59;95295.52;;;9.78;56.60
6851;BME280;3464;42.728;23.296;2023-04-29T01:52:25;95295.07;;;9.77;56.79
6851;BME280;3464;42.728;23.296;2023-04-29T01:54:52;95298.87;;;9.80;56.88
6851;BME280;3464;42.728;23.296;2023-04-29T01:57:18;95295.30;;;9.95;56.68
6851;BME280;3464;42.728;23.296;2023-04-29T01:59:46;95307.81;;;9.90;56.96
6851;BME280;3464;42.728;23.296;2023-04-29T02:02:12;95307.05;;;9.97;56.85
6851;BME280;3464;42.728;23.296;2023-04-29T02:04:39;95309.45;;;9.88;57.02
6851;BME280;3464;42.728;23.296;2023-04-29T02:07:05;95310.27;;;9.85;56.90
6851;BME280;3464;42.728;23.296;2023-04-29T02:09:32;95312.73;;;9.81;56.91
6851;BME280;3464;42.728;23.296;2023-04-29T02:11:59;95305.00;;;9.68;56.70
6851;BME280;3464;42.728;23.296;2023-04-29T02:14:26;95306.70;;;9.67;56.16
6851;BME280;3464;42.728;23.296;2023-04-29T02:16:52;95305.31;;;9.59;56.10
6851;BME280;3464;42.728;23.296;2023-04-29T02:19:19;95310.16;;;9.45;56.10
6851;BME280;3464;42.728;23.296;2023-04-29T02:21:46;95309.27;;;9.40;56.30
6851;BME280;3464;42.728;23.296;2023-04-29T02:24:12;95304.63;;;9.37;56.65
6851;BME280;3464;42.728;23.296;2023-04-29T02:26:40;95303.27;;;9.30;56.98
6851;BME280;3464;42.728;23.296;2023-04-29T02:29:06;95299.68;;;9.13;57.21
6851;BME280;3464;42.728;23.296;2023-04-29T02:31:33;95306.73;;;9.10;57.36
6851;BME280;3464;42.728;23.296;2023-04-29T02:34:00;95304.12;;;9.02;57.79
6851;BME280;3464;42.728;23.296;2023-04-29T02:36:26;95309.80;;;8.91;57.55
6851;BME280;3464;42.728;23.296;2023-04-29T02:38:53;95307.77;;;8.94;57.08
6851;BME280;3464;42.728;23.296;2023-04-29T02:41:20;95304.31;;;9.17;57.15
6851;BME280;3464;42.728;23.296;2023-04-29T02:43:47;95299.06;;;9.01;56.92
6851;BME280;3464;42.728;23.296;2023-04-29T02:46:14;95303.92;;;8.90;57.14
6851;BME280;3464;42.728;23.296;2023-04-29T02:48:41;95306.71;;;8.82;57.12
6851;BME280;3464;42.728;23.296;2023-04-29T02:51:07;95301.59;;;8.75;56.93
6851;BME280;3464;42.728;23.296;2023-04-29T02:53:34;95307.84;;;8.74;57.13
6851;BME280;3464;42.728;23.296;2023-04-29T02:56:01;95315.80;;;8.74;57.16
6851;BME280;3464;42.728;23.296;2023-04-29T02:58:27;95329.67;;;8.79;57.75
6851;BME280;3464;42.728;23.296;2023-04-29T03:00:54;95330.94;;;8.78;58.39
6851;BME280;3464;42.728;23.296;2023-04-29T03:03:21;95321.87;;;8.88;58.01
6851;BME280;3464;42.728;23.296;2023-04-29T03:05:47;95318.48;;;8.84;58.12
6851;BME280;3464;42.728;23.296;2023-04-29T03:08:14;95322.14;;;8.79;58.34
6851;BME280;3464;42.728;23.296;2023-04-29T03:10:41;95317.12;;;8.78;58.21
6851;BME280;3464;42.728;23.296;2023-04-29T03:13:08;95316.97;;;8.70;58.34
6851;BME280;3464;42.728;23.296;2023-04-29T03:15:34;95326.11;;;8.65;58.54
6851;BME280;3464;42.728;23.296;2023-04-29T03:18:01;95328.84;;;8.80;58.18
6851;BME280;3464;42.728;23.296;2023-04-29T03:20:27;95327.06;;;8.73;58.35
6851;BME280;3464;42.728;23.296;2023-04-29T03:22:54;95331.41;;;8.83;58.26
6851;BME280;3464;42.728;23.296;2023-04-29T03:25:22;95340.56;;;8.80;58.60
6851;BME280;3464;42.728;23.296;2023-04-29T03:27:48;95347.84;;;8.90;58.29
6851;BME280;3464;42.728;23.296;2023-04-29T03:30:15;95348.80;;;8.98;58.13
6851;BME280;3464;42.728;23.296;2023-04-29T03:32:42;95356.03;;;9.04;57.97
6851;BME280;3464;42.728;23.296;2023-04-29T03:35:09;95357.61;;;9.24;57.69
6851;BME280;3464;42.728;23.296;2023-04-29T03:37:37;95351.45;;;9.34;57.58
6851;BME280;3464;42.728;23.296;2023-04-29T03:40:05;95357.88;;;9.43;57.28
6851;BME280;3464;42.728;23.296;2023-04-29T03:42:32;95354.78;;;9.62;56.98
6851;BME280;3464;42.728;23.296;2023-04-29T03:44:59;95347.38;;;9.71;56.85
6851;BME280;3464;42.728;23.296;2023-04-29T03:47:25;95345.52;;;9.90;56.55
6851;BME280;3464;42.728;23.296;2023-04-29T03:49:52;95337.34;;;10.06;56.19
6851;BME280;3464;42.728;23.296;2023-04-29T03:52:19;95340.53;;;10.27;55.96
6851;BME280;3464;42.728;23.296;2023-04-29T03:54:45;95333.12;;;10.41;55.41
6851;BME280;3464;42.728;23.296;2023-04-29T03:57:12;95330.04;;;10.67;54.74
6851;BME280;3464;42.728;23.296;2023-04-29T03:59:39;95328.87;;;10.78;54.61
6851;BME280;3464;42.728;23.296;2023-04-29T04:02:05;95333.64;;;10.94;54.12
6851;BME280;3464;42.728;23.296;2023-04-29T04:04:32;95334.50;;;10.97;53.80
6851;BME280;3464;42.728;23.296;2023-04-29T04:06:58;95348.71;;;10.89;54.05
6851;BME280;3464;42.728;23.296;2023-04-29T04:09:25;95350.56;;;11.10;53.96
6851;BME280;3464;42.728;23.296;2023-04-29T04:11:51;95353.77;;;10.93;54.10
6851;BME280;3464;42.728;23.296;2023-04-29T04:14:18;95353.23;;;11.30;53.79
6851;BME280;3464;42.728;23.296;2023-04-29T04:16:45;95346.27;;;11.60;53.08
6851;BME280;3464;42.728;23.296;2023-04-29T04:19:11;95349.73;;;11.72;52.40
6851;BME280;3464;42.728;23.296;2023-04-29T04:21:38;95338.30;;;12.61;50.85
6851;BME280;3464;42.728;23.296;2023-04-29T04:24:05;95347.03;;;12.28;50.96
6851;BME280;3464;42.728;23.296;2023-04-29T04:26:31;95342.46;;;12.48;50.79
6851;BME280;3464;42.728;23.296;2023-04-29T04:28:58;95339.16;;;12.84;50.19
6851;BME280;3464;42.728;23.296;2023-04-29T04:31:24;95343.80;;;12.86;49.68
6851;BME280;3464;42.728;23.296;2023-04-29T04:33:51;95341.28;;;12.96;49.49
6851;BME280;3464;42.728;23.296;2023-04-29T04:36:18;95347.59;;;12.91;49.64
6851;BME280;3464;42.728;23.296;2023-04-29T04:38:52;95348.89;;;13.16;49.58
6851;BME280;3464;42.728;23.296;2023-04-29T04:41:19;95346.37;;;13.28;49.12
6851;BME280;3464;42.728;23.296;2023-04-29T04:43:47;95356.48;;;13.11;49.04
6851;BME280;3464;42.728;23.296;2023-04-29T04:46:14;95351.42;;;13.14;49.26
6851;BME280;3464;42.728;23.296;2023-04-29T04:48:40;95356.35;;;13.96;48.58
6851;BME280;3464;42.728;23.296;2023-04-29T04:51:08;95350.46;;;13.99;47.64
6851;BME280;3464;42.728;23.296;2023-04-29T04:53:35;95341.58;;;14.03;47.07
6851;BME280;3464;42.728;23.296;2023-04-29T04:56:02;95333.24;;;14.73;45.69
6851;BME280;3464;42.728;23.296;2023-04-29T04:58:29;95325.27;;;15.23;45.02
6851;BME280;3464;42.728;23.296;2023-04-29T05:00:57;95317.75;;;15.60;44.47
6851;BME280;3464;42.728;23.296;2023-04-29T05:03:24;95324.45;;;14.63;45.75
6851;BME280;3464;42.728;23.296;2023-04-29T05:05:56;95327.57;;;14.98;45.37
6851;BME280;3464;42.728;23.296;2023-04-29T05:08:22;95333.31;;;16.10;43.68
6851;BME280;3464;42.728;23.296;2023-04-29T05:10:49;95320.03;;;16.56;42.34
6851;BME280;3464;42.728;23.296;2023-04-29T05:13:16;95312.28;;;16.95;41.77
6851;BME280;3464;42.728;23.296;2023-04-29T05:15:43;95301.05;;;17.08;41.55
6851;BME280;3464;42.728;23.296;2023-04-29T05:18:10;95291.58;;;17.43;41.50
6851;BME280;3464;42.728;23.296;2023-04-29T05:20:36;95296.65;;;17.68;40.53
6851;BME280;3464;42.728;23.296;2023-04-29T05:23:03;95308.26;;;16.79;41.55
6851;BME280;3464;42.728;23.296;2023-04-29T05:25:30;95302.99;;;16.30;42.18
6851;BME280;3464;42.728;23.296;2023-04-29T05:27:57;95305.63;;;16.23;42.67
6851;BME280;3464;42.728;23.296;2023-04-29T05:30:25;95313.28;;;16.55;42.42
6851;BME280;3464;42.728;23.296;2023-04-29T05:32:51;95305.42;;;16.71;42.38
6851;BME280;3464;42.728;23.296;2023-04-29T05:35:18;95298.28;;;18.15;39.83
6851;BME280;3464;42.728;23.296;2023-04-29T05:37:45;95292.02;;;18.52;39.00
6851;BME280;3464;42.728;23.296;2023-04-29T05:40:13;95287.49;;;19.37;37.86
6851;BME280;3464;42.728;23.296;2023-04-29T05:42:40;95296.13;;;19.49;37.44
6851;BME280;3464;42.728;23.296;2023-04-29T05:45:08;95302.80;;;17.80;39.49
6851;BME280;3464;42.728;23.296;2023-04-29T05:47:34;95303.87;;;18.32;39.63
6851;BME280;3464;42.728;23.296;2023-04-29T05:50:01;95296.02;;;19.17;38.53
6851;BME280;3464;42.728;23.296;2023-04-29T05:52:27;95296.75;;;21.20;35.89
6851;BME280;3464;42.728;23.296;2023-04-29T05:54:55;95296.14;;;23.87;32.07
6851;BME280;3464;42.728;23.296;2023-04-29T05:57:23;95280.21;;;25.90;29.48
6851;BME280;3464;42.728;23.296;2023-04-29T05:59:49;95290.39;;;26.02;29.01
6851;BME280;3464;42.728;23.296;2023-04-29T06:02:16;95285.75;;;26.50;28.50
6851;BME280;3464;42.728;23.296;2023-04-29T06:04:42;95291.66;;;26.03;28.55
6851;BME280;3464;42.728;23.296;2023-04-29T06:07:09;95282.27;;;27.80;27.05
6851;BME280;3464;42.728;23.296;2023-04-29T06:09:35;95269.38;;;31.40;24.59
6851;BME280;3464;42.728;23.296;2023-04-29T06:12:02;95266.72;;;32.33;22.74
6851;BME280;3464;42.728;23.296;2023-04-29T06:14:29;95263.34;;;34.70;21.16
6851;BME280;3464;42.728;23.296;2023-04-29T06:16:55;95269.95;;;35.53;20.43
6851;BME280;3464;42.728;23.296;2023-04-29T06:19:23;95264.20;;;35.35;20.30
6851;BME280;3464;42.728;23.296;2023-04-29T06:21:50;95271.92;;;34.06;20.88
6851;BME280;3464;42.728;23.296;2023-04-29T06:24:16;95265.60;;;33.98;21.35
6851;BME280;3464;42.728;23.296;2023-04-29T06:26:43;95269.14;;;32.97;22.81
6851;BME280;3464;42.728;23.296;2023-04-29T06:29:10;95266.70;;;32.94;23.04
6851;BME280;3464;42.728;23.296;2023-04-29T06:31:36;95262.66;;;36.04;19.96
6851;BME280;3464;42.728;23.296;2023-04-29T06:34:03;95262.25;;;37.23;18.98
6851;BME280;3464;42.728;23.296;2023-04-29T06:36:30;95263.58;;;36.55;18.65
6851;BME280;3464;42.728;23.296;2023-04-29T06:38:56;95260.61;;;36.59;18.75
6851;BME280;3464;42.728;23.296;2023-04-29T06:41:23;95250.42;;;35.76;19.68
6851;BME280;3464;42.728;23.296;2023-04-29T06:43:50;95262.51;;;35.49;19.20
6851;BME280;3464;42.728;23.296;2023-04-29T06:46:17;95255.06;;;35.44;19.44
6851;BME280;3464;42.728;23.296;2023-04-29T06:48:44;95263.27;;;31.88;21.44
6851;BME280;3464;42.728;23.296;2023-04-29T06:51:11;95265.04;;;32.10;21.55
6851;BME280;3464;42.728;23.296;2023-04-29T06:53:38;95265.91;;;31.87;21.99
6851;BME280;3464;42.728;23.296;2023-04-29T06:56:05;95252.42;;;34.35;20.73
6851;BME280;3464;42.728;23.296;2023-04-29T06:58:32;95260.08;;;33.12;20.62
6851;BME280;3464;42.728;23.296;2023-04-29T07:00:59;95252.84;;;30.51;22.74
6851;BME280;3464;42.728;23.296;2023-04-29T07:03:26;95258.46;;;30.13;23.63
6851;BME280;3464;42.728;23.296;2023-04-29T07:05:53;95249.62;;;29.32;24.14
6851;BME280;3464;42.728;23.296;2023-04-29T07:08:19;95249.39;;;29.62;23.77
6851;BME280;3464;42.728;23.296;2023-04-29T07:10:53;95249.27;;;29.56;24.59
6851;BME280;3464;42.728;23.296;2023-04-29T07:13:21;95248.03;;;30.51;23.63
6851;BME280;3464;42.728;23.296;2023-04-29T07:15:48;95246.31;;;29.30;24.21
6851;BME280;3464;42.728;23.296;2023-04-29T07:18:16;95253.77;;;28.80;24.93
6851;BME280;3464;42.728;23.296;2023-04-29T07:20:43;95248.96;;;31.47;23.32
6851;BME280;3464;42.728;23.296;2023-04-29T07:23:11;95247.81;;;33.40;21.74
6851;BME280;3464;42.728;23.296;2023-04-29T07:25:37;95249.16;;;33.60;21.00
6851;BME280;3464;42.728;23.296;2023-04-29T07:28:05;95250.10;;;32.12;22.32
6851;BME280;3464;42.728;23.296;2023-04-29T07:30:32;95239.75;;;33.10;21.93
6851;BME280;3464;42.728;23.296;2023-04-29T07:32:59;95242.09;;;35.18;20.11
6851;BME280;3464;42.728;23.296;2023-04-29T07:35:25;95241.48;;;35.54;20.01
6851;BME280;3464;42.728;23.296;2023-04-29T07:37:52;95239.30;;;36.67;19.16
6851;BME280;3464;42.728;23.296;2023-04-29T07:40:19;95239.38;;;36.84;19.46
6851;BME280;3464;42.728;23.296;2023-04-29T07:42:49;95235.48;;;34.29;20.39
6851;BME280;3464;42.728;23.296;2023-04-29T07:45:15;95244.39;;;29.91;23.96
6851;BME280;3464;42.728;23.296;2023-04-29T07:47:42;95241.77;;;31.20;23.17
6851;BME280;3464;42.728;23.296;2023-04-29T07:50:09;95236.99;;;28.79;24.18
6851;BME280;3464;42.728;23.296;2023-04-29T07:52:37;95239.59;;;27.59;26.62
6851;BME280;3464;42.728;23.296;2023-04-29T07:55:03;95235.54;;;27.32;26.41
6851;BME280;3464;42.728;23.296;2023-04-29T07:57:30;95232.77;;;26.74;27.31
6851;BME280;3464;42.728;23.296;2023-04-29T07:59:57;95227.83;;;25.64;28.48
6851;BME280;3464;42.728;23.296;2023-04-29T08:02:24;95233.98;;;23.69;30.63
6851;BME280;3464;42.728;23.296;2023-04-29T08:04:51;95236.08;;;23.50;30.93
6851;BME280;3464;42.728;23.296;2023-04-29T08:07:17;95234.22;;;24.69;30.59
6851;BME280;3464;42.728;23.296;2023-04-29T08:09:44;95231.41;;;25.09;29.20
6851;BME280;3464;42.728;23.296;2023-04-29T08:12:12;95219.59;;;25.49;28.73
6851;BME280;3464;42.728;23.296;2023-04-29T08:14:39;95220.80;;;25.34;28.82
6851;BME280;3464;42.728;23.296;2023-04-29T08:17:06;95216.52;;;25.67;28.83
6851;BME280;3464;42.728;23.296;2023-04-29T08:19:33;95223.75;;;25.35;27.86
6851;BME280;3464;42.728;23.296;2023-04-29T08:21:59;95208.98;;;24.94;28.23
6851;BME280;3464;42.728;23.296;2023-04-29T08:24:26;95217.50;;;24.50;27.86
6851;BME280;3464;42.728;23.296;2023-04-29T08:26:53;95217.39;;;23.15;29.55
6851;BME280;3464;42.728;23.296;2023-04-29T08:29:19;95220.23;;;23.50;28.86
6851;BME280;3464;42.728;23.296;2023-04-29T08:31:46;95224.59;;;24.63;28.14
6851;BME280;3464;42.728;23.296;2023-04-29T08:34:13;95212.14;;;25.69;27.46
6851;BME280;3464;42.728;23.296;2023-04-29T08:36:40;95210.70;;;26.99;26.97
6851;BME280;3464;42.728;23.296;2023-04-29T08:39:07;95205.56;;;25.71;27.08
6851;BME280;3464;42.728;23.296;2023-04-29T08:41:35;95205.36;;;24.62;28.13
6851;BME280;3464;42.728;23.296;2023-04-29T08:44:00;95212.20;;;23.86;28.55
6851;BME280;3464;42.728;23.296;2023-04-29T08:46:27;95209.22;;;24.71;28.50
6851;BME280;3464;42.728;23.296;2023-04-29T08:48:53;95203.86;;;25.87;27.68
6851;BME280;3464;42.728;23.296;2023-04-29T08:51:20;95201.41;;;25.25;28.01
6851;BME280;3464;42.728;23.296;2023-04-29T08:53:47;95192.09;;;25.74;28.71
6851;BME280;3464;42.728;23.296;2023-04-29T08:56:15;95196.77;;;24.53;28.77
6851;BME280;3464;42.728;23.296;2023-04-29T08:58:42;95216.09;;;23.36;30.04
6851;BME280;3464;42.728;23.296;2023-04-29T09:01:09;95202.16;;;22.79;30.70
6851;BME280;3464;42.728;23.296;2023-04-29T09:04:08;95205.34;;;23.06;31.05
6851;BME280;3464;42.728;23.296;2023-04-29T09:06:18;95191.50;;;24.28;29.88
6851;BME280;3464;42.728;23.296;2023-04-29T09:08:45;95193.35;;;24.43;29.36
6851;BME280;3464;42.728;23.296;2023-04-29T09:11:11;95196.51;;;24.49;29.74
6851;BME280;3464;42.728;23.296;2023-04-29T09:13:38;95183.45;;;25.33;27.91
6851;BME280;3464;42.728;23.296;2023-04-29T09:21:33;95171.46;;;28.37;25.68
6851;BME280;3464;42.728;23.296;2023-04-29T09:24:00;95173.36;;;28.34;25.22
6851;BME280;3464;42.728;23.296;2023-04-29T09:26:27;95176.59;;;28.52;25.32
6851;BME280;3464;42.728;23.296;2023-04-29T09:29:09;95177.58;;;26.44;27.11
6851;BME280;3464;42.728;23.296;2023-04-29T09:31:35;95168.20;;;27.12;26.91
6851;BME280;3464;42.728;23.296;2023-04-29T09:34:03;95165.72;;;26.49;27.60
6851;BME280;3464;42.728;23.296;2023-04-29T09:36:37;95164.52;;;24.90;29.41
6851;BME280;3464;42.728;23.296;2023-04-29T09:39:06;95163.16;;;26.95;27.52
6851;BME280;3464;42.728;23.296;2023-04-29T09:41:32;95162.15;;;26.20;27.21
6851;BME280;3464;42.728;23.296;2023-04-29T09:44:07;95155.14;;;26.53;27.27
6851;BME280;3464;42.728;23.296;2023-04-29T09:46:34;95156.94;;;26.83;26.81
6851;BME280;3464;42.728;23.296;2023-04-29T09:49:00;95160.79;;;27.06;27.11
6851;BME280;3464;42.728;23.296;2023-04-29T09:51:27;95147.95;;;26.36;27.06
6851;BME280;3464;42.728;23.296;2023-04-29T09:53:54;95146.75;;;26.42;27.21
6851;BME280;3464;42.728;23.296;2023-04-29T09:56:21;95139.39;;;26.89;26.58
6851;BME280;3464;42.728;23.296;2023-04-29T09:58:48;95139.73;;;26.52;26.85
6851;BME280;3464;42.728;23.296;2023-04-29T10:01:15;95137.54;;;26.14;27.32
6851;BME280;3464;42.728;23.296;2023-04-29T10:06:48;95128.67;;;25.62;27.82
6851;BME280;3464;42.728;23.296;2023-04-29T10:09:15;95125.44;;;26.23;27.48
6851;BME280;3464;42.728;23.296;2023-04-29T10:11:44;95122.39;;;26.62;27.09
6851;BME280;3464;42.728;23.296;2023-04-29T10:14:15;95120.38;;;25.98;27.56
6851;BME280;3464;42.728;23.296;2023-04-29T10:16:58;95118.61;;;25.66;28.25
6851;BME280;3464;42.728;23.296;2023-04-29T10:19:34;95110.25;;;25.77;28.03
6851;BME280;3464;42.728;23.296;2023-04-29T10:22:04;95114.95;;;27.09;26.95
6851;BME280;3464;42.728;23.296;2023-04-29T10:24:28;95112.81;;;27.38;26.39
6851;BME280;3464;42.728;23.296;2023-04-29T10:26:56;95111.90;;;27.25;26.62
6851;BME280;3464;42.728;23.296;2023-04-29T10:29:24;95107.34;;;26.62;27.53
6851;BME280;3464;42.728;23.296;2023-04-29T10:31:51;95107.83;;;26.30;27.52
6851;BME280;3464;42.728;23.296;2023-04-29T10:34:20;95111.98;;;26.72;27.87
6851;BME280;3464;42.728;23.296;2023-04-29T10:36:49;95100.59;;;25.89;28.56
6851;BME280;3464;42.728;23.296;2023-04-29T10:39:21;95104.94;;;26.67;27.89
6851;BME280;3464;42.728;23.296;2023-04-29T10:41:46;95106.91;;;27.22;26.97
6851;BME280;3464;42.728;23.296;2023-04-29T10:44:15;95103.58;;;26.67;27.58
6851;BME280;3464;42.728;23.296;2023-04-29T10:46:42;95100.33;;;26.57;27.08
6851;BME280;3464;42.728;23.296;2023-04-29T10:49:08;95103.38;;;25.93;27.58
6851;BME280;3464;42.728;23.296;2023-04-29T10:51:38;95101.32;;;26.08;27.66
6851;BME280;3464;42.728;23.296;2023-04-29T10:54:06;95094.73;;;25.70;28.36
6851;BME280;3464;42.728;23.296;2023-04-29T10:56:39;95091.19;;;25.72;27.80
6851;BME280;3464;42.728;23.296;2023-04-29T10:59:12;95088.52;;;26.22;26.77
6851;BME280;3464;42.728;23.296;2023-04-29T11:01:48;95092.14;;;25.63;27.11
6851;BME280;3464;42.728;23.296;2023-04-29T11:04:16;95081.09;;;26.00;27.27
6851;BME280;3464;42.728;23.296;2023-04-29T11:06:44;95084.72;;;25.88;27.46
6851;BME280;3464;42.728;23.296;2023-04-29T11:09:17;95087.13;;;26.08;27.13
6851;BME280;3464;42.728;23.296;2023-04-29T11:11:42;95085.37;;;25.84;27.61
6851;BME280;3464;42.728;23.296;2023-04-29T11:14:11;95078.64;;;25.34;26.74
6851;BME280;3464;42.728;23.296;2023-04-29T11:16:53;95080.36;;;25.82;26.68
6851;BME280;3464;42.728;23.296;2023-04-29T11:19:18;95078.30;;;25.64;26.83
6851;BME280;3464;42.728;23.296;2023-04-29T11:21:45;95079.02;;;25.99;25.56
6851;BME280;3464;42.728;23.296;2023-04-29T11:24:12;95082.92;;;26.06;24.85
6851;BME280;3464;42.728;23.296;2023-04-29T11:26:39;95074.36;;;26.21;24.10
6851;BME280;3464;42.728;23.296;2023-04-29T11:29:06;95066.43;;;26.63;24.03
6851;BME280;3464;42.728;23.296;2023-04-29T11:31:32;95073.62;;;26.34;24.38
6851;BME280;3464;42.728;23.296;2023-04-29T11:33:59;95072.63;;;25.58;25.26
6851;BME280;3464;42.728;23.296;2023-04-29T11:36:26;95068.97;;;25.94;25.89
6851;BME280;3464;42.728;23.296;2023-04-29T11:38:56;95070.83;;;26.31;24.96
6851;BME280;3464;42.728;23.296;2023-04-29T11:41:22;95062.96;;;26.10;25.37
6851;BME280;3464;42.728;23.296;2023-04-29T11:43:55;95066.85;;;25.20;25.50
6851;BME280;3464;42.728;23.296;2023-04-29T11:46:24;95068.91;;;25.39;26.08
6851;BME280;3464;42.728;23.296;2023-04-29T11:48:58;95074.27;;;25.09;25.77
6851;BME280;3464;42.728;23.296;2023-04-29T11:51:40;95075.74;;;24.54;26.20
6851;BME280;3464;42.728;23.296;2023-04-29T11:54:07;95069.33;;;24.80;26.58
6851;BME280;3464;42.728;23.296;2023-04-29T11:56:39;95066.70;;;25.06;26.10
6851;BME280;3464;42.728;23.296;2023-04-29T11:59:05;95064.39;;;24.68;25.68
6851;BME280;3464;42.728;23.296;2023-04-29T12:01:32;95063.06;;;25.02;25.70
6851;BME280;3464;42.728;23.296;2023-04-29T12:03:59;95056.39;;;25.23;25.84
6851;BME280;3464;42.728;23.296;2023-04-29T12:06:27;95052.65;;;25.13;25.63
6851;BME280;3464;42.728;23.296;2023-04-29T12:08:57;95050.55;;;25.61;25.11
6851;BME280;3464;42.728;23.296;2023-04-29T12:11:22;95054.27;;;26.04;24.94
6851;BME280;3464;42.728;23.296;2023-04-29T12:13:48;95049.56;;;26.19;25.11
6851;BME280;3464;42.728;23.296;2023-04-29T12:16:14;95053.80;;;26.35;25.10
6851;BME280;3464;42.728;23.296;2023-04-29T12:18:41;95046.59;;;26.25;25.23
6851;BME280;3464;42.728;23.296;2023-04-29T12:21:09;95048.69;;;25.71;25.56
6851;BME280;3464;42.728;23.296;2023-04-29T12:23:35;95045.61;;;25.69;25.79
6851;BME280;3464;42.728;23.296;2023-04-29T12:26:02;95042.37;;;25.61;26.60
6851;BME280;3464;42.728;23.296;2023-04-29T12:28:29;95038.09;;;25.84;26.25
6851;BME280;3464;42.728;23.296;2023-04-29T12:30:57;95035.78;;;25.48;26.34
6851;BME280;3464;42.728;23.296;2023-04-29T12:33:25;95029.34;;;25.87;26.03
6851;BME280;3464;42.728;23.296;2023-04-29T12:35:51;95037.72;;;26.22;25.86
6851;BME280;3464;42.728;23.296;2023-04-29T12:38:23;95029.73;;;26.27;25.49
6851;BME280;3464;42.728;23.296;2023-04-29T12:40:49;95025.78;;;25.82;25.90
6851;BME280;3464;42.728;23.296;2023-04-29T12:43:18;95030.73;;;26.09;26.16
6851;BME280;3464;42.728;23.296;2023-04-29T12:45:45;95025.34;;;26.36;25.89
6851;BME280;3464;42.728;23.296;2023-04-29T12:48:12;95023.66;;;27.16;25.24
6851;BME280;3464;42.728;23.296;2023-04-29T12:50:38;95027.23;;;26.70;25.83
6851;BME280;3464;42.728;23.296;2023-04-29T12:53:06;95032.87;;;26.85;26.36
6851;BME280;3464;42.728;23.296;2023-04-29T12:55:32;95025.04;;;26.56;26.40
6851;BME280;3464;42.728;23.296;2023-04-29T12:57:59;95026.75;;;25.96;26.60
6851;BME280;3464;42.728;23.296;2023-04-29T13:00:25;95029.45;;;26.24;26.81
6851;BME280;3464;42.728;23.296;2023-04-29T13:02:52;95028.33;;;26.21;26.90
6851;BME280;3464;42.728;23.296;2023-04-29T13:05:19;95020.31;;;26.93;26.37
6851;BME280;3464;42.728;23.296;2023-04-29T13:07:47;95020.33;;;26.26;26.09
6851;BME280;3464;42.728;23.296;2023-04-29T13:10:14;95025.41;;;26.72;25.79
6851;BME280;3464;42.728;23.296;2023-04-29T13:12:41;95015.31;;;26.45;25.63
6851;BME280;3464;42.728;23.296;2023-04-29T13:15:08;95022.38;;;26.57;25.92
6851;BME280;3464;42.728;23.296;2023-04-29T13:17:35;95021.30;;;26.47;26.40
6851;BME280;3464;42.728;23.296;2023-04-29T13:20:03;95020.44;;;26.31;26.95
6851;BME280;3464;42.728;23.296;2023-04-29T13:22:29;95017.81;;;26.62;26.64
6851;BME280;3464;42.728;23.296;2023-04-29T13:24:56;95014.28;;;27.00;26.67